Pagina principale
METAR-TAF:

METAR-TAF

Aeroporti :

Aeroporto di Colonia-Bonn

Colonia, Germania

latitudine: 50-52N, longitudine: 007-10E, altezza: 91 m

Osservazione

Il bollettino è stato emesso 9 minuti fa, alle 16:20 UTC
Vento 3 kt da est
Temperature 3°C
Umidità 81%
Pressione 1015 hPa
Visibilità 10 km o più
Poco nuvoloso ad un'altezza di 2200 ft
Nubi sparse ad un'altezza di 2700 ft

METAR: EDDK 201620Z 09003KT 9999 FEW022 SCT027 03/00 Q1015 NOSIG

Ora: 17:29 (16:29 UTC)

Previsione

Il bollettino è stato emesso 5 ore e 29 minuti fa, alle 11:00 UTC
Previsione valida dal 20 alle 12 UTC al 21 alle 18 UTC
Vento 5 kt da est/sud-est
Visibilità 10 km o più
Nubi sparse ad un'altezza di 3000 ft
Probabilità 30% :
Temporaneamente
dal 21 alle 07 UTC al 21 alle 09 UTC
Vento 3 kt da direzioni variabili
Visibilità: 3000 m
foschia

TAF: EDDK 201100Z 2012/2118 12005KT 9999 SCT030 PROB30 TEMPO 2107/2109 VRB03KT 3000 BR

Osservazioni e previsioni meteorologiche di più di 4000 aeroporti (messaggi METAR e TAF).

Le stazioni disponibili sono rappresentate dai dischi gialli e rossi sulla carta.

Puntare il mouse per vedere il nome della stazione.

Clicca sopra per visualizzare le osservazioni e previsioni meteorologiche.

Per cambiare la mappa : fare clic sui pulsanti verdi con una croce nera per ingrandire, il pulsante verde con un trattino per diminuire, o sulla freccia verde per le mappe adiacenti.


METAR-TAF: